sensor_id;sensor_type;location;lat;lon;timestamp;P1;durP1;ratioP1;P2;durP2;ratioP2
35891;SDS011;21993;42.672;23.296;2022-10-16T00:01:24;15.97;;;9.83;;
35891;SDS011;21993;42.672;23.296;2022-10-16T00:03:51;12.80;;;8.80;;
35891;SDS011;21993;42.672;23.296;2022-10-16T00:06:17;11.87;;;7.97;;
35891;SDS011;21993;42.672;23.296;2022-10-16T00:08:44;14.23;;;8.53;;
35891;SDS011;21993;42.672;23.296;2022-10-16T00:11:17;16.97;;;8.87;;
35891;SDS011;21993;42.672;23.296;2022-10-16T00:13:51;19.53;;;9.53;;
35891;SDS011;21993;42.672;23.296;2022-10-16T00:16:19;15.73;;;9.60;;
35891;SDS011;21993;42.672;23.296;2022-10-16T00:18:45;13.43;;;8.67;;
35891;SDS011;21993;42.672;23.296;2022-10-16T00:21:16;13.03;;;9.50;;
35891;SDS011;21993;42.672;23.296;2022-10-16T00:23:43;19.80;;;9.87;;
35891;SDS011;21993;42.672;23.296;2022-10-16T00:26:10;16.87;;;9.87;;
35891;SDS011;21993;42.672;23.296;2022-10-16T00:28:38;18.20;;;9.43;;
35891;SDS011;21993;42.672;23.296;2022-10-16T00:31:07;13.13;;;9.00;;
35891;SDS011;21993;42.672;23.296;2022-10-16T00:33:35;17.80;;;9.43;;
35891;SDS011;21993;42.672;23.296;2022-10-16T00:36:02;16.13;;;9.30;;
35891;SDS011;21993;42.672;23.296;2022-10-16T00:38:29;19.47;;;9.87;;
35891;SDS011;21993;42.672;23.296;2022-10-16T00:40:55;13.97;;;9.87;;
35891;SDS011;21993;42.672;23.296;2022-10-16T00:43:38;14.97;;;9.57;;
35891;SDS011;21993;42.672;23.296;2022-10-16T00:46:54;13.33;;;9.50;;
35891;SDS011;21993;42.672;23.296;2022-10-16T00:51:39;17.20;;;9.10;;
35891;SDS011;21993;42.672;23.296;2022-10-16T00:56:44;13.23;;;8.33;;
35891;SDS011;21993;42.672;23.296;2022-10-16T00:59:20;12.40;;;7.80;;
35891;SDS011;21993;42.672;23.296;2022-10-16T01:01:49;12.97;;;8.63;;
35891;SDS011;21993;42.672;23.296;2022-10-16T01:04:15;14.27;;;8.80;;
35891;SDS011;21993;42.672;23.296;2022-10-16T01:06:43;15.30;;;8.60;;
35891;SDS011;21993;42.672;23.296;2022-10-16T01:12:26;19.03;;;8.77;;
35891;SDS011;21993;42.672;23.296;2022-10-16T01:17:51;12.10;;;8.07;;
35891;SDS011;21993;42.672;23.296;2022-10-16T01:20:27;12.00;;;8.37;;
35891;SDS011;21993;42.672;23.296;2022-10-16T01:29:01;19.63;;;9.77;;
35891;SDS011;21993;42.672;23.296;2022-10-16T01:31:29;12.20;;;9.80;;
35891;SDS011;21993;42.672;23.296;2022-10-16T01:36:54;13.53;;;8.93;;
35891;SDS011;21993;42.672;23.296;2022-10-16T01:39:27;12.63;;;9.73;;
35891;SDS011;21993;42.672;23.296;2022-10-16T01:42:00;19.03;;;9.13;;
35891;SDS011;21993;42.672;23.296;2022-10-16T01:44:44;13.37;;;9.03;;
35891;SDS011;21993;42.672;23.296;2022-10-16T01:47:12;10.90;;;8.63;;
35891;SDS011;21993;42.672;23.296;2022-10-16T01:49:39;14.07;;;9.43;;
35891;SDS011;21993;42.672;23.296;2022-10-16T01:52:07;14.13;;;9.87;;
35891;SDS011;21993;42.672;23.296;2022-10-16T01:54:37;16.40;;;8.70;;
35891;SDS011;21993;42.672;23.296;2022-10-16T01:57:05;12.17;;;8.77;;
35891;SDS011;21993;42.672;23.296;2022-10-16T01:59:33;13.47;;;8.83;;
35891;SDS011;21993;42.672;23.296;2022-10-16T02:02:04;15.87;;;8.93;;
35891;SDS011;21993;42.672;23.296;2022-10-16T02:04:34;15.00;;;9.40;;
35891;SDS011;21993;42.672;23.296;2022-10-16T02:07:03;14.73;;;8.57;;
35891;SDS011;21993;42.672;23.296;2022-10-16T02:09:30;13.13;;;8.90;;
35891;SDS011;21993;42.672;23.296;2022-10-16T02:11:58;13.80;;;8.90;;
35891;SDS011;21993;42.672;23.296;2022-10-16T02:14:28;11.97;;;8.73;;
35891;SDS011;21993;42.672;23.296;2022-10-16T02:16:54;12.10;;;8.90;;
35891;SDS011;21993;42.672;23.296;2022-10-16T02:19:19;12.47;;;8.00;;
35891;SDS011;21993;42.672;23.296;2022-10-16T02:29:34;14.23;;;8.60;;
35891;SDS011;21993;42.672;23.296;2022-10-16T02:32:10;11.77;;;7.67;;
35891;SDS011;21993;42.672;23.296;2022-10-16T02:34:40;13.53;;;8.83;;
35891;SDS011;21993;42.672;23.296;2022-10-16T02:37:06;11.33;;;8.63;;
35891;SDS011;21993;42.672;23.296;2022-10-16T02:39:32;20.40;;;9.37;;
35891;SDS011;21993;42.672;23.296;2022-10-16T02:41:59;12.53;;;8.07;;
35891;SDS011;21993;42.672;23.296;2022-10-16T02:44:24;14.37;;;8.50;;
35891;SDS011;21993;42.672;23.296;2022-10-16T02:46:50;14.50;;;8.27;;
35891;SDS011;21993;42.672;23.296;2022-10-16T02:49:15;13.57;;;8.10;;
35891;SDS011;21993;42.672;23.296;2022-10-16T02:51:41;12.03;;;8.63;;
35891;SDS011;21993;42.672;23.296;2022-10-16T02:54:06;12.77;;;8.40;;
35891;SDS011;21993;42.672;23.296;2022-10-16T02:56:31;13.23;;;8.53;;
35891;SDS011;21993;42.672;23.296;2022-10-16T02:58:57;15.93;;;8.17;;
35891;SDS011;21993;42.672;23.296;2022-10-16T03:01:23;14.03;;;8.30;;
35891;SDS011;21993;42.672;23.296;2022-10-16T03:03:48;12.67;;;8.13;;
35891;SDS011;21993;42.672;23.296;2022-10-16T03:06:14;13.10;;;8.77;;
35891;SDS011;21993;42.672;23.296;2022-10-16T03:08:39;11.60;;;7.87;;
35891;SDS011;21993;42.672;23.296;2022-10-16T03:11:05;13.77;;;8.30;;
35891;SDS011;21993;42.672;23.296;2022-10-16T03:13:30;13.80;;;8.13;;
35891;SDS011;21993;42.672;23.296;2022-10-16T03:15:56;14.03;;;8.37;;
35891;SDS011;21993;42.672;23.296;2022-10-16T03:18:21;13.63;;;8.40;;
35891;SDS011;21993;42.672;23.296;2022-10-16T03:20:47;13.30;;;8.80;;
35891;SDS011;21993;42.672;23.296;2022-10-16T03:23:12;16.30;;;8.67;;
35891;SDS011;21993;42.672;23.296;2022-10-16T03:25:37;16.33;;;10.47;;
35891;SDS011;21993;42.672;23.296;2022-10-16T03:28:03;15.30;;;9.77;;
35891;SDS011;21993;42.672;23.296;2022-10-16T03:30:29;12.77;;;9.10;;
35891;SDS011;21993;42.672;23.296;2022-10-16T03:32:54;21.17;;;9.83;;
35891;SDS011;21993;42.672;23.296;2022-10-16T03:35:23;16.07;;;9.50;;
35891;SDS011;21993;42.672;23.296;2022-10-16T03:37:49;13.33;;;8.97;;
35891;SDS011;21993;42.672;23.296;2022-10-16T03:40:15;12.57;;;8.93;;
35891;SDS011;21993;42.672;23.296;2022-10-16T03:42:44;17.37;;;8.67;;
35891;SDS011;21993;42.672;23.296;2022-10-16T03:45:10;15.70;;;9.77;;
35891;SDS011;21993;42.672;23.296;2022-10-16T03:47:36;13.57;;;8.83;;
35891;SDS011;21993;42.672;23.296;2022-10-16T03:50:02;15.27;;;9.67;;
35891;SDS011;21993;42.672;23.296;2022-10-16T03:52:28;12.37;;;8.90;;
35891;SDS011;21993;42.672;23.296;2022-10-16T03:54:54;11.57;;;8.17;;
35891;SDS011;21993;42.672;23.296;2022-10-16T03:57:20;12.57;;;8.47;;
35891;SDS011;21993;42.672;23.296;2022-10-16T03:59:46;14.57;;;8.10;;
35891;SDS011;21993;42.672;23.296;2022-10-16T04:02:11;13.40;;;7.30;;
35891;SDS011;21993;42.672;23.296;2022-10-16T04:04:37;14.20;;;8.10;;
35891;SDS011;21993;42.672;23.296;2022-10-16T04:07:02;14.73;;;8.07;;
35891;SDS011;21993;42.672;23.296;2022-10-16T04:09:28;12.93;;;7.90;;
35891;SDS011;21993;42.672;23.296;2022-10-16T04:11:53;11.30;;;7.73;;
35891;SDS011;21993;42.672;23.296;2022-10-16T04:14:18;14.93;;;8.17;;
35891;SDS011;21993;42.672;23.296;2022-10-16T04:16:44;12.77;;;8.33;;
35891;SDS011;21993;42.672;23.296;2022-10-16T04:19:09;14.07;;;8.53;;
35891;SDS011;21993;42.672;23.296;2022-10-16T04:21:35;15.27;;;8.13;;
35891;SDS011;21993;42.672;23.296;2022-10-16T04:24:01;10.30;;;7.50;;
35891;SDS011;21993;42.672;23.296;2022-10-16T04:26:26;13.37;;;9.03;;
35891;SDS011;21993;42.672;23.296;2022-10-16T04:28:52;17.43;;;8.97;;
35891;SDS011;21993;42.672;23.296;2022-10-16T04:31:17;16.20;;;9.13;;
35891;SDS011;21993;42.672;23.296;2022-10-16T04:33:43;16.37;;;8.93;;
35891;SDS011;21993;42.672;23.296;2022-10-16T04:36:09;14.03;;;8.23;;
35891;SDS011;21993;42.672;23.296;2022-10-16T04:38:34;11.33;;;7.33;;
35891;SDS011;21993;42.672;23.296;2022-10-16T04:40:59;13.13;;;7.80;;
35891;SDS011;21993;42.672;23.296;2022-10-16T04:43:25;12.97;;;8.60;;
35891;SDS011;21993;42.672;23.296;2022-10-16T04:45:51;14.83;;;8.53;;
35891;SDS011;21993;42.672;23.296;2022-10-16T04:48:17;13.90;;;8.23;;
35891;SDS011;21993;42.672;23.296;2022-10-16T04:50:43;13.93;;;8.10;;
35891;SDS011;21993;42.672;23.296;2022-10-16T04:53:08;14.07;;;8.20;;
35891;SDS011;21993;42.672;23.296;2022-10-16T04:55:34;11.53;;;8.33;;
35891;SDS011;21993;42.672;23.296;2022-10-16T04:58:00;14.80;;;8.27;;
35891;SDS011;21993;42.672;23.296;2022-10-16T05:00:25;12.03;;;8.93;;
35891;SDS011;21993;42.672;23.296;2022-10-16T05:02:50;12.73;;;7.93;;
35891;SDS011;21993;42.672;23.296;2022-10-16T05:05:16;13.07;;;8.43;;
35891;SDS011;21993;42.672;23.296;2022-10-16T05:07:44;12.27;;;7.90;;
35891;SDS011;21993;42.672;23.296;2022-10-16T05:10:09;14.33;;;8.03;;
35891;SDS011;21993;42.672;23.296;2022-10-16T05:12:34;14.97;;;8.60;;
35891;SDS011;21993;42.672;23.296;2022-10-16T05:15:00;10.03;;;7.30;;
35891;SDS011;21993;42.672;23.296;2022-10-16T05:17:25;12.03;;;8.90;;
35891;SDS011;21993;42.672;23.296;2022-10-16T05:19:51;15.37;;;8.80;;
35891;SDS011;21993;42.672;23.296;2022-10-16T05:22:16;11.47;;;8.47;;
35891;SDS011;21993;42.672;23.296;2022-10-16T05:24:42;16.93;;;8.53;;
35891;SDS011;21993;42.672;23.296;2022-10-16T05:27:07;15.97;;;7.87;;
35891;SDS011;21993;42.672;23.296;2022-10-16T05:29:33;12.20;;;8.63;;
35891;SDS011;21993;42.672;23.296;2022-10-16T05:31:58;16.00;;;8.80;;
35891;SDS011;21993;42.672;23.296;2022-10-16T05:34:24;13.33;;;8.30;;
35891;SDS011;21993;42.672;23.296;2022-10-16T05:36:49;13.80;;;9.03;;
35891;SDS011;21993;42.672;23.296;2022-10-16T05:39:16;17.00;;;9.20;;
35891;SDS011;21993;42.672;23.296;2022-10-16T05:41:41;14.37;;;8.40;;
35891;SDS011;21993;42.672;23.296;2022-10-16T05:44:07;13.77;;;8.50;;
35891;SDS011;21993;42.672;23.296;2022-10-16T05:46:33;11.43;;;8.27;;
35891;SDS011;21993;42.672;23.296;2022-10-16T05:48:58;17.50;;;8.70;;
35891;SDS011;21993;42.672;23.296;2022-10-16T05:51:24;14.10;;;8.50;;
35891;SDS011;21993;42.672;23.296;2022-10-16T05:53:49;15.47;;;9.70;;
35891;SDS011;21993;42.672;23.296;2022-10-16T05:56:15;18.47;;;10.67;;
35891;SDS011;21993;42.672;23.296;2022-10-16T05:58:40;17.93;;;10.57;;
35891;SDS011;21993;42.672;23.296;2022-10-16T06:01:11;16.33;;;9.43;;
35891;SDS011;21993;42.672;23.296;2022-10-16T06:03:38;17.07;;;10.20;;
35891;SDS011;21993;42.672;23.296;2022-10-16T06:06:15;27.33;;;13.30;;
35891;SDS011;21993;42.672;23.296;2022-10-16T06:08:42;32.43;;;19.10;;
35891;SDS011;21993;42.672;23.296;2022-10-16T06:11:09;18.43;;;12.10;;
35891;SDS011;21993;42.672;23.296;2022-10-16T06:13:38;16.40;;;9.77;;
35891;SDS011;21993;42.672;23.296;2022-10-16T06:16:06;15.97;;;10.07;;
35891;SDS011;21993;42.672;23.296;2022-10-16T06:18:32;20.57;;;11.23;;
35891;SDS011;21993;42.672;23.296;2022-10-16T06:20:57;13.03;;;9.03;;
35891;SDS011;21993;42.672;23.296;2022-10-16T06:23:24;15.03;;;9.40;;
35891;SDS011;21993;42.672;23.296;2022-10-16T06:25:49;15.43;;;10.13;;
35891;SDS011;21993;42.672;23.296;2022-10-16T06:28:15;12.70;;;9.63;;
35891;SDS011;21993;42.672;23.296;2022-10-16T06:30:41;18.53;;;9.90;;
35891;SDS011;21993;42.672;23.296;2022-10-16T06:33:08;28.00;;;15.33;;
35891;SDS011;21993;42.672;23.296;2022-10-16T06:35:34;51.43;;;25.90;;
35891;SDS011;21993;42.672;23.296;2022-10-16T06:38:00;19.27;;;12.27;;
35891;SDS011;21993;42.672;23.296;2022-10-16T06:40:25;15.23;;;10.10;;
35891;SDS011;21993;42.672;23.296;2022-10-16T06:42:50;12.23;;;9.40;;
35891;SDS011;21993;42.672;23.296;2022-10-16T06:45:17;12.63;;;9.00;;
35891;SDS011;21993;42.672;23.296;2022-10-16T06:47:42;11.37;;;9.13;;
35891;SDS011;21993;42.672;23.296;2022-10-16T06:50:07;12.77;;;9.33;;
35891;SDS011;21993;42.672;23.296;2022-10-16T06:52:33;11.53;;;8.97;;
35891;SDS011;21993;42.672;23.296;2022-10-16T06:54:59;14.50;;;10.00;;
35891;SDS011;21993;42.672;23.296;2022-10-16T06:57:24;13.17;;;9.07;;
35891;SDS011;21993;42.672;23.296;2022-10-16T06:59:50;11.33;;;8.87;;
35891;SDS011;21993;42.672;23.296;2022-10-16T07:02:15;13.73;;;9.37;;
35891;SDS011;21993;42.672;23.296;2022-10-16T07:04:41;13.77;;;8.83;;
35891;SDS011;21993;42.672;23.296;2022-10-16T07:07:06;11.57;;;8.73;;
35891;SDS011;21993;42.672;23.296;2022-10-16T07:09:31;12.27;;;9.37;;
35891;SDS011;21993;42.672;23.296;2022-10-16T07:11:57;13.00;;;9.07;;
35891;SDS011;21993;42.672;23.296;2022-10-16T07:14:22;16.57;;;10.07;;
35891;SDS011;21993;42.672;23.296;2022-10-16T07:16:48;16.03;;;10.23;;
35891;SDS011;21993;42.672;23.296;2022-10-16T07:19:14;12.77;;;8.87;;
35891;SDS011;21993;42.672;23.296;2022-10-16T07:21:42;14.07;;;8.90;;
35891;SDS011;21993;42.672;23.296;2022-10-16T07:24:11;12.27;;;9.73;;
35891;SDS011;21993;42.672;23.296;2022-10-16T07:26:39;14.80;;;9.80;;
35891;SDS011;21993;42.672;23.296;2022-10-16T07:29:12;15.43;;;9.73;;
35891;SDS011;21993;42.672;23.296;2022-10-16T07:31:42;10.33;;;9.07;;
35891;SDS011;21993;42.672;23.296;2022-10-16T07:34:09;15.47;;;10.10;;
35891;SDS011;21993;42.672;23.296;2022-10-16T07:36:35;17.43;;;10.50;;
35891;SDS011;21993;42.672;23.296;2022-10-16T07:39:00;17.07;;;12.97;;
35891;SDS011;21993;42.672;23.296;2022-10-16T07:41:26;18.80;;;11.57;;
35891;SDS011;21993;42.672;23.296;2022-10-16T07:43:52;18.50;;;10.90;;
35891;SDS011;21993;42.672;23.296;2022-10-16T07:46:19;17.53;;;10.83;;
35891;SDS011;21993;42.672;23.296;2022-10-16T07:48:46;16.27;;;10.53;;
35891;SDS011;21993;42.672;23.296;2022-10-16T07:51:13;16.27;;;11.93;;
35891;SDS011;21993;42.672;23.296;2022-10-16T07:53:41;16.40;;;10.47;;
35891;SDS011;21993;42.672;23.296;2022-10-16T07:56:06;15.83;;;11.43;;
35891;SDS011;21993;42.672;23.296;2022-10-16T07:58:33;16.33;;;11.43;;
35891;SDS011;21993;42.672;23.296;2022-10-16T08:01:02;15.50;;;11.27;;
35891;SDS011;21993;42.672;23.296;2022-10-16T08:03:29;15.30;;;10.53;;
35891;SDS011;21993;42.672;23.296;2022-10-16T08:05:56;14.83;;;10.50;;
35891;SDS011;21993;42.672;23.296;2022-10-16T08:08:22;15.50;;;10.27;;
35891;SDS011;21993;42.672;23.296;2022-10-16T08:10:48;13.20;;;9.63;;
35891;SDS011;21993;42.672;23.296;2022-10-16T08:13:13;14.90;;;9.97;;
35891;SDS011;21993;42.672;23.296;2022-10-16T08:15:40;21.47;;;10.10;;
35891;SDS011;21993;42.672;23.296;2022-10-16T08:18:06;14.33;;;10.23;;
35891;SDS011;21993;42.672;23.296;2022-10-16T08:20:32;14.60;;;10.13;;
35891;SDS011;21993;42.672;23.296;2022-10-16T08:23:01;11.50;;;8.50;;
35891;SDS011;21993;42.672;23.296;2022-10-16T08:25:27;9.87;;;7.40;;
35891;SDS011;21993;42.672;23.296;2022-10-16T08:27:53;11.53;;;8.20;;
35891;SDS011;21993;42.672;23.296;2022-10-16T08:30:20;11.00;;;7.63;;
35891;SDS011;21993;42.672;23.296;2022-10-16T08:32:46;8.83;;;7.47;;
35891;SDS011;21993;42.672;23.296;2022-10-16T08:35:12;11.27;;;7.53;;
35891;SDS011;21993;42.672;23.296;2022-10-16T08:37:39;11.13;;;6.80;;
35891;SDS011;21993;42.672;23.296;2022-10-16T08:40:05;10.63;;;6.63;;
35891;SDS011;21993;42.672;23.296;2022-10-16T08:48:27;7.53;;;5.93;;
35891;SDS011;21993;42.672;23.296;2022-10-16T08:51:34;10.63;;;5.50;;
35891;SDS011;21993;42.672;23.296;2022-10-16T08:54:02;9.53;;;6.47;;
35891;SDS011;21993;42.672;23.296;2022-10-16T08:56:30;8.77;;;6.57;;
35891;SDS011;21993;42.672;23.296;2022-10-16T08:58:57;6.90;;;5.57;;
35891;SDS011;21993;42.672;23.296;2022-10-16T09:01:23;7.77;;;5.17;;
35891;SDS011;21993;42.672;23.296;2022-10-16T09:06:58;7.00;;;4.53;;
35891;SDS011;21993;42.672;23.296;2022-10-16T09:17:43;8.73;;;4.20;;
35891;SDS011;21993;42.672;23.296;2022-10-16T09:23:12;7.90;;;4.27;;
35891;SDS011;21993;42.672;23.296;2022-10-16T09:25:44;4.73;;;4.20;;
35891;SDS011;21993;42.672;23.296;2022-10-16T09:28:13;4.63;;;3.87;;
35891;SDS011;21993;42.672;23.296;2022-10-16T09:30:39;4.63;;;3.63;;
35891;SDS011;21993;42.672;23.296;2022-10-16T09:33:05;5.10;;;3.90;;
35891;SDS011;21993;42.672;23.296;2022-10-16T09:35:32;6.73;;;3.73;;
35891;SDS011;21993;42.672;23.296;2022-10-16T09:38:02;4.77;;;4.07;;
35891;SDS011;21993;42.672;23.296;2022-10-16T09:40:28;5.77;;;4.13;;
35891;SDS011;21993;42.672;23.296;2022-10-16T09:45:56;6.20;;;4.50;;
35891;SDS011;21993;42.672;23.296;2022-10-16T09:48:23;7.00;;;4.10;;
35891;SDS011;21993;42.672;23.296;2022-10-16T09:50:55;5.80;;;4.00;;
35891;SDS011;21993;42.672;23.296;2022-10-16T09:53:26;4.93;;;3.67;;
35891;SDS011;21993;42.672;23.296;2022-10-16T09:56:09;8.33;;;4.50;;
35891;SDS011;21993;42.672;23.296;2022-10-16T09:58:41;5.87;;;4.87;;
35891;SDS011;21993;42.672;23.296;2022-10-16T10:01:12;7.63;;;4.10;;
35891;SDS011;21993;42.672;23.296;2022-10-16T10:03:40;6.17;;;3.90;;
35891;SDS011;21993;42.672;23.296;2022-10-16T10:06:27;4.87;;;3.37;;
35891;SDS011;21993;42.672;23.296;2022-10-16T10:09:00;4.97;;;3.47;;
35891;SDS011;21993;42.672;23.296;2022-10-16T10:11:36;5.53;;;3.47;;
35891;SDS011;21993;42.672;23.296;2022-10-16T10:14:38;4.57;;;3.50;;
35891;SDS011;21993;42.672;23.296;2022-10-16T10:17:15;5.30;;;3.53;;
35891;SDS011;21993;42.672;23.296;2022-10-16T10:19:47;5.07;;;3.93;;
35891;SDS011;21993;42.672;23.296;2022-10-16T10:22:28;8.47;;;3.87;;
35891;SDS011;21993;42.672;23.296;2022-10-16T10:25:16;4.20;;;3.77;;
35891;SDS011;21993;42.672;23.296;2022-10-16T10:44:25;3.97;;;3.57;;
35891;SDS011;21993;42.672;23.296;2022-10-16T10:55:37;5.43;;;4.30;;
35891;SDS011;21993;42.672;23.296;2022-10-16T11:06:40;4.60;;;3.37;;
35891;SDS011;21993;42.672;23.296;2022-10-16T11:09:10;4.13;;;3.37;;
35891;SDS011;21993;42.672;23.296;2022-10-16T11:11:53;7.60;;;4.70;;
35891;SDS011;21993;42.672;23.296;2022-10-16T11:19:36;3.93;;;2.87;;
35891;SDS011;21993;42.672;23.296;2022-10-16T11:27:40;4.47;;;3.40;;
35891;SDS011;21993;42.672;23.296;2022-10-16T11:32:52;3.87;;;3.47;;
35891;SDS011;21993;42.672;23.296;2022-10-16T11:35:37;4.30;;;3.60;;
35891;SDS011;21993;42.672;23.296;2022-10-16T11:38:26;3.77;;;3.33;;
35891;SDS011;21993;42.672;23.296;2022-10-16T11:41:04;3.87;;;3.33;;
35891;SDS011;21993;42.672;23.296;2022-10-16T11:43:44;5.33;;;3.93;;
35891;SDS011;21993;42.672;23.296;2022-10-16T11:46:21;7.40;;;3.57;;
35891;SDS011;21993;42.672;23.296;2022-10-16T11:51:55;4.97;;;3.20;;
35891;SDS011;21993;42.672;23.296;2022-10-16T11:54:39;9.77;;;5.70;;
35891;SDS011;21993;42.672;23.296;2022-10-16T11:57:19;4.63;;;3.27;;
35891;SDS011;21993;42.672;23.296;2022-10-16T12:08:36;5.13;;;3.50;;
35891;SDS011;21993;42.672;23.296;2022-10-16T12:11:09;4.80;;;3.00;;
35891;SDS011;21993;42.672;23.296;2022-10-16T12:16:37;6.70;;;3.03;;
35891;SDS011;21993;42.672;23.296;2022-10-16T12:19:10;3.70;;;3.20;;
35891;SDS011;21993;42.672;23.296;2022-10-16T12:21:38;4.90;;;3.07;;
35891;SDS011;21993;42.672;23.296;2022-10-16T12:24:04;3.27;;;2.97;;
35891;SDS011;21993;42.672;23.296;2022-10-16T12:26:34;5.27;;;3.20;;
35891;SDS011;21993;42.672;23.296;2022-10-16T12:29:14;4.30;;;3.40;;
35891;SDS011;21993;42.672;23.296;2022-10-16T12:32:00;8.30;;;3.97;;
35891;SDS011;21993;42.672;23.296;2022-10-16T12:34:38;5.67;;;3.00;;
35891;SDS011;21993;42.672;23.296;2022-10-16T12:37:10;3.83;;;3.47;;
35891;SDS011;21993;42.672;23.296;2022-10-16T12:39:44;4.20;;;3.53;;
35891;SDS011;21993;42.672;23.296;2022-10-16T12:42:21;4.70;;;3.50;;
35891;SDS011;21993;42.672;23.296;2022-10-16T12:44:47;5.47;;;3.43;;
35891;SDS011;21993;42.672;23.296;2022-10-16T12:47:23;6.07;;;3.80;;
35891;SDS011;21993;42.672;23.296;2022-10-16T12:50:00;5.90;;;3.63;;
35891;SDS011;21993;42.672;23.296;2022-10-16T12:52:34;4.07;;;3.57;;
35891;SDS011;21993;42.672;23.296;2022-10-16T12:55:04;5.23;;;3.77;;
35891;SDS011;21993;42.672;23.296;2022-10-16T13:00:48;5.00;;;3.20;;
35891;SDS011;21993;42.672;23.296;2022-10-16T13:06:27;9.37;;;3.57;;
35891;SDS011;21993;42.672;23.296;2022-10-16T13:12:10;4.10;;;3.43;;
35891;SDS011;21993;42.672;23.296;2022-10-16T13:20:03;5.83;;;3.50;;
35891;SDS011;21993;42.672;23.296;2022-10-16T13:28:34;4.40;;;3.33;;
35891;SDS011;21993;42.672;23.296;2022-10-16T13:31:03;7.57;;;3.47;;
35891;SDS011;21993;42.672;23.296;2022-10-16T13:33:39;4.40;;;3.07;;
35891;SDS011;21993;42.672;23.296;2022-10-16T13:36:06;6.73;;;4.00;;
35891;SDS011;21993;42.672;23.296;2022-10-16T13:38:32;6.00;;;3.53;;
35891;SDS011;21993;42.672;23.296;2022-10-16T13:41:03;4.43;;;3.83;;
35891;SDS011;21993;42.672;23.296;2022-10-16T13:43:34;5.50;;;3.67;;
35891;SDS011;21993;42.672;23.296;2022-10-16T13:46:15;5.13;;;3.60;;
35891;SDS011;21993;42.672;23.296;2022-10-16T13:48:42;4.40;;;3.70;;
35891;SDS011;21993;42.672;23.296;2022-10-16T13:51:15;4.43;;;3.20;;
35891;SDS011;21993;42.672;23.296;2022-10-16T13:53:42;7.17;;;3.13;;
35891;SDS011;21993;42.672;23.296;2022-10-16T13:56:19;5.40;;;3.20;;
35891;SDS011;21993;42.672;23.296;2022-10-16T13:58:46;4.03;;;3.57;;
35891;SDS011;21993;42.672;23.296;2022-10-16T14:01:23;3.80;;;3.10;;
35891;SDS011;21993;42.672;23.296;2022-10-16T14:03:51;6.80;;;3.50;;
35891;SDS011;21993;42.672;23.296;2022-10-16T14:06:20;4.47;;;3.13;;
35891;SDS011;21993;42.672;23.296;2022-10-16T14:08:59;5.67;;;3.47;;
35891;SDS011;21993;42.672;23.296;2022-10-16T14:11:29;8.83;;;3.20;;
35891;SDS011;21993;42.672;23.296;2022-10-16T14:13:55;8.47;;;3.33;;
35891;SDS011;21993;42.672;23.296;2022-10-16T14:16:22;4.57;;;3.50;;
35891;SDS011;21993;42.672;23.296;2022-10-16T14:18:54;4.33;;;3.00;;
35891;SDS011;21993;42.672;23.296;2022-10-16T14:21:20;3.53;;;3.20;;
35891;SDS011;21993;42.672;23.296;2022-10-16T14:23:46;3.30;;;2.83;;
35891;SDS011;21993;42.672;23.296;2022-10-16T14:26:12;5.07;;;2.90;;
35891;SDS011;21993;42.672;23.296;2022-10-16T14:28:40;5.93;;;3.00;;
35891;SDS011;21993;42.672;23.296;2022-10-16T14:33:44;5.53;;;2.97;;
35891;SDS011;21993;42.672;23.296;2022-10-16T14:38:35;4.23;;;3.10;;
35891;SDS011;21993;42.672;23.296;2022-10-16T14:41:03;4.73;;;2.60;;
35891;SDS011;21993;42.672;23.296;2022-10-16T14:43:32;3.57;;;2.90;;
35891;SDS011;21993;42.672;23.296;2022-10-16T14:46:03;4.53;;;2.73;;
35891;SDS011;21993;42.672;23.296;2022-10-16T14:48:39;6.40;;;3.57;;
35891;SDS011;21993;42.672;23.296;2022-10-16T14:51:08;4.23;;;2.70;;
35891;SDS011;21993;42.672;23.296;2022-10-16T14:53:38;4.57;;;3.20;;
35891;SDS011;21993;42.672;23.296;2022-10-16T14:56:07;2.80;;;2.60;;
35891;SDS011;21993;42.672;23.296;2022-10-16T14:58:39;3.70;;;3.40;;
35891;SDS011;21993;42.672;23.296;2022-10-16T15:01:05;5.83;;;4.47;;
35891;SDS011;21993;42.672;23.296;2022-10-16T15:03:31;5.20;;;3.37;;
35891;SDS011;21993;42.672;23.296;2022-10-16T15:05:57;5.17;;;3.77;;
35891;SDS011;21993;42.672;23.296;2022-10-16T15:08:22;4.07;;;2.90;;
35891;SDS011;21993;42.672;23.296;2022-10-16T15:10:48;7.13;;;3.43;;
35891;SDS011;21993;42.672;23.296;2022-10-16T15:13:13;4.60;;;3.00;;
35891;SDS011;21993;42.672;23.296;2022-10-16T15:15:45;4.07;;;3.40;;
35891;SDS011;21993;42.672;23.296;2022-10-16T15:18:11;6.10;;;3.00;;
35891;SDS011;21993;42.672;23.296;2022-10-16T15:20:39;4.00;;;3.10;;
35891;SDS011;21993;42.672;23.296;2022-10-16T15:23:09;7.03;;;3.47;;
35891;SDS011;21993;42.672;23.296;2022-10-16T15:25:52;5.40;;;3.80;;
35891;SDS011;21993;42.672;23.296;2022-10-16T15:28:19;8.17;;;3.40;;
35891;SDS011;21993;42.672;23.296;2022-10-16T15:30:45;4.87;;;3.47;;
35891;SDS011;21993;42.672;23.296;2022-10-16T15:33:16;8.93;;;3.93;;
35891;SDS011;21993;42.672;23.296;2022-10-16T15:35:44;4.10;;;3.63;;
35891;SDS011;21993;42.672;23.296;2022-10-16T15:38:12;4.60;;;3.67;;
35891;SDS011;21993;42.672;23.296;2022-10-16T15:40:38;7.13;;;3.40;;
35891;SDS011;21993;42.672;23.296;2022-10-16T15:43:04;4.57;;;3.57;;
35891;SDS011;21993;42.672;23.296;2022-10-16T15:45:30;5.73;;;4.30;;
35891;SDS011;21993;42.672;23.296;2022-10-16T15:47:55;5.27;;;4.27;;
35891;SDS011;21993;42.672;23.296;2022-10-16T15:50:21;7.23;;;5.13;;
35891;SDS011;21993;42.672;23.296;2022-10-16T15:52:46;7.03;;;4.83;;
35891;SDS011;21993;42.672;23.296;2022-10-16T15:55:12;12.00;;;5.23;;
35891;SDS011;21993;42.672;23.296;2022-10-16T15:57:39;5.97;;;4.87;;
35891;SDS011;21993;42.672;23.296;2022-10-16T16:00:10;9.10;;;4.93;;
35891;SDS011;21993;42.672;23.296;2022-10-16T16:02:38;7.43;;;5.37;;
35891;SDS011;21993;42.672;23.296;2022-10-16T16:05:04;7.53;;;5.17;;
35891;SDS011;21993;42.672;23.296;2022-10-16T16:07:34;9.13;;;5.87;;
35891;SDS011;21993;42.672;23.296;2022-10-16T16:10:00;12.63;;;6.03;;
35891;SDS011;21993;42.672;23.296;2022-10-16T16:12:28;8.00;;;5.33;;
35891;SDS011;21993;42.672;23.296;2022-10-16T16:14:53;10.03;;;5.90;;
35891;SDS011;21993;42.672;23.296;2022-10-16T16:17:18;11.10;;;6.07;;
35891;SDS011;21993;42.672;23.296;2022-10-16T16:19:45;11.47;;;5.13;;
35891;SDS011;21993;42.672;23.296;2022-10-16T16:22:10;10.60;;;6.70;;
35891;SDS011;21993;42.672;23.296;2022-10-16T16:24:36;11.60;;;6.83;;
35891;SDS011;21993;42.672;23.296;2022-10-16T16:27:01;13.17;;;8.33;;
35891;SDS011;21993;42.672;23.296;2022-10-16T16:29:26;15.30;;;7.10;;
35891;SDS011;21993;42.672;23.296;2022-10-16T16:31:52;11.67;;;7.00;;
35891;SDS011;21993;42.672;23.296;2022-10-16T16:34:22;15.23;;;7.17;;
35891;SDS011;21993;42.672;23.296;2022-10-16T16:36:49;15.77;;;8.10;;
35891;SDS011;21993;42.672;23.296;2022-10-16T16:39:15;14.90;;;7.67;;
35891;SDS011;21993;42.672;23.296;2022-10-16T16:41:40;12.03;;;6.70;;
35891;SDS011;21993;42.672;23.296;2022-10-16T16:44:07;16.37;;;7.40;;
35891;SDS011;21993;42.672;23.296;2022-10-16T16:46:35;14.43;;;8.87;;
35891;SDS011;21993;42.672;23.296;2022-10-16T16:49:01;34.50;;;12.03;;
35891;SDS011;21993;42.672;23.296;2022-10-16T16:51:27;24.43;;;13.40;;
35891;SDS011;21993;42.672;23.296;2022-10-16T16:53:53;16.33;;;10.47;;